sensor_id;sensor_type;location;lat;lon;timestamp;pressure;altitude;pressure_sealevel;temperature;humidity
63351;BME280;64988;51.058;17.040;2022-12-18T00:00:12;101745.72;;;-1.63;70.54
63351;BME280;64988;51.058;17.040;2022-12-18T00:06:04;101759.88;;;-1.65;70.15
63351;BME280;64988;51.058;17.040;2022-12-18T00:11:57;101739.56;;;-1.66;70.80
63351;BME280;64988;51.058;17.040;2022-12-18T00:17:49;101747.59;;;-1.83;70.93
63351;BME280;64988;51.058;17.040;2022-12-18T00:23:43;101760.78;;;-1.77;70.84
63351;BME280;64988;51.058;17.040;2022-12-18T00:29:36;101752.84;;;-1.72;71.63
63351;BME280;64988;51.058;17.040;2022-12-18T00:35:28;101780.13;;;-1.63;71.84
63351;BME280;64988;51.058;17.040;2022-12-18T00:41:21;101778.31;;;-1.53;71.46
63351;BME280;64988;51.058;17.040;2022-12-18T00:47:33;101787.13;;;-1.49;71.57
63351;BME280;64988;51.058;17.040;2022-12-18T00:53:25;101785.38;;;-1.53;70.44
63351;BME280;64988;51.058;17.040;2022-12-18T00:59:18;101810.03;;;-1.48;70.91
63351;BME280;64988;51.058;17.040;2022-12-18T01:05:12;101819.72;;;-1.44;71.00
63351;BME280;64988;51.058;17.040;2022-12-18T01:11:09;101828.53;;;-1.36;71.56
63351;BME280;64988;51.058;17.040;2022-12-18T01:17:02;101843.50;;;-1.29;70.91
63351;BME280;64988;51.058;17.040;2022-12-18T01:22:56;101844.34;;;-1.26;71.31
63351;BME280;64988;51.058;17.040;2022-12-18T01:28:50;101842.63;;;-1.33;70.94
63351;BME280;64988;51.058;17.040;2022-12-18T01:34:42;101853.19;;;-1.28;71.13
63351;BME280;64988;51.058;17.040;2022-12-18T01:40:34;101845.25;;;-1.27;70.08
63351;BME280;64988;51.058;17.040;2022-12-18T01:46:27;101849.66;;;-1.32;70.49
63351;BME280;64988;51.058;17.040;2022-12-18T01:52:21;101854.09;;;-1.29;70.39
63351;BME280;64988;51.058;17.040;2022-12-18T01:58:17;101854.94;;;-1.27;70.80
63351;BME280;64988;51.058;17.040;2022-12-18T02:04:22;101858.50;;;-1.30;70.47
63351;BME280;64988;51.058;17.040;2022-12-18T02:10:22;101858.59;;;-1.49;69.94
63351;BME280;64988;51.058;17.040;2022-12-18T02:16:41;101859.47;;;-1.46;69.73
63351;BME280;64988;51.058;17.040;2022-12-18T02:29:11;101879.69;;;-1.27;70.62
63351;BME280;64988;51.058;17.040;2022-12-18T02:35:11;101881.41;;;-1.20;71.25
63351;BME280;64988;51.058;17.040;2022-12-18T02:41:05;101889.31;;;-1.15;70.51
63351;BME280;64988;51.058;17.040;2022-12-18T02:47:00;101891.09;;;-1.17;70.53
63351;BME280;64988;51.058;17.040;2022-12-18T02:53:20;101888.44;;;-1.16;70.28
63351;BME280;64988;51.058;17.040;2022-12-18T02:59:31;101900.00;;;-1.35;69.05
63351;BME280;64988;51.058;17.040;2022-12-18T03:05:35;101898.19;;;-1.25;70.11
63351;BME280;64988;51.058;17.040;2022-12-18T03:11:33;101892.00;;;-1.21;69.86
63351;BME280;64988;51.058;17.040;2022-12-18T03:17:57;101898.22;;;-1.31;70.19
63351;BME280;64988;51.058;17.040;2022-12-18T03:23:54;101900.94;;;-1.45;68.77
63351;BME280;64988;51.058;17.040;2022-12-18T03:29:56;101906.22;;;-1.45;70.08
63351;BME280;64988;51.058;17.040;2022-12-18T03:36:01;101908.03;;;-1.50;70.25
63351;BME280;64988;51.058;17.040;2022-12-18T03:42:16;101915.03;;;-1.41;70.71
63351;BME280;64988;51.058;17.040;2022-12-18T03:48:37;101915.91;;;-1.35;69.91
63351;BME280;64988;51.058;17.040;2022-12-18T03:54:35;101929.16;;;-1.33;70.42
63351;BME280;64988;51.058;17.040;2022-12-18T04:00:36;101931.84;;;-1.45;69.74
63351;BME280;64988;51.058;17.040;2022-12-18T04:06:36;101947.75;;;-1.54;70.34
63351;BME280;64988;51.058;17.040;2022-12-18T04:12:29;101942.41;;;-1.44;70.50
63351;BME280;64988;51.058;17.040;2022-12-18T04:18:21;101942.38;;;-1.35;70.34
63351;BME280;64988;51.058;17.040;2022-12-18T04:24:16;101960.94;;;-1.33;70.34
63351;BME280;64988;51.058;17.040;2022-12-18T04:30:18;101961.78;;;-1.28;70.09
63351;BME280;64988;51.058;17.040;2022-12-18T04:36:10;101960.06;;;-1.44;69.24
63351;BME280;64988;51.058;17.040;2022-12-18T04:42:05;101967.22;;;-1.69;69.25
63351;BME280;64988;51.058;17.040;2022-12-18T04:47:58;101983.06;;;-1.58;69.07
63351;BME280;64988;51.058;17.040;2022-12-18T04:53:51;101978.69;;;-1.81;69.12
63351;BME280;64988;51.058;17.040;2022-12-18T04:59:44;101988.41;;;-1.86;68.60
63351;BME280;64988;51.058;17.040;2022-12-18T05:05:37;101999.00;;;-1.93;69.07
63351;BME280;64988;51.058;17.040;2022-12-18T05:11:31;102002.53;;;-2.02;69.66
63351;BME280;64988;51.058;17.040;2022-12-18T05:17:26;102006.06;;;-2.06;69.90
63351;BME280;64988;51.058;17.040;2022-12-18T05:23:19;102005.19;;;-2.17;69.46
63351;BME280;64988;51.058;17.040;2022-12-18T05:29:12;102014.00;;;-2.17;69.45
63351;BME280;64988;51.058;17.040;2022-12-18T05:35:06;102015.75;;;-2.06;70.19
63351;BME280;64988;51.058;17.040;2022-12-18T05:41:01;102028.09;;;-1.93;69.81
63351;BME280;64988;51.058;17.040;2022-12-18T05:46:53;102036.94;;;-1.94;70.06
63351;BME280;64988;51.058;17.040;2022-12-18T05:52:46;102032.53;;;-1.94;69.60
63351;BME280;64988;51.058;17.040;2022-12-18T05:58:40;102042.22;;;-2.11;69.51
63351;BME280;64988;51.058;17.040;2022-12-18T06:04:32;102036.94;;;-2.05;69.46
63351;BME280;64988;51.058;17.040;2022-12-18T06:10:25;102050.16;;;-2.17;69.14
63351;BME280;64988;51.058;17.040;2022-12-18T06:16:18;102046.63;;;-2.27;70.08
63351;BME280;64988;51.058;17.040;2022-12-18T06:22:11;102069.47;;;-2.50;70.19
63351;BME280;64988;51.058;17.040;2022-12-18T06:28:04;102064.22;;;-2.35;70.26
63351;BME280;64988;51.058;17.040;2022-12-18T06:33:57;102083.56;;;-2.58;70.46
63351;BME280;64988;51.058;17.040;2022-12-18T06:39:49;102084.47;;;-2.46;70.33
63351;BME280;64988;51.058;17.040;2022-12-18T06:45:42;102096.78;;;-2.45;70.67
63351;BME280;64988;51.058;17.040;2022-12-18T06:51:35;102099.44;;;-2.46;69.98
63351;BME280;64988;51.058;17.040;2022-12-18T06:57:27;102111.75;;;-2.48;69.71
63351;BME280;64988;51.058;17.040;2022-12-18T07:03:19;102120.56;;;-2.52;69.49
63351;BME280;64988;51.058;17.040;2022-12-18T07:09:11;102112.66;;;-2.48;69.85
63351;BME280;64988;51.058;17.040;2022-12-18T07:15:04;102128.50;;;-2.54;69.87
63351;BME280;64988;51.058;17.040;2022-12-18T07:20:57;102141.72;;;-2.49;69.50
63351;BME280;64988;51.058;17.040;2022-12-18T07:26:49;102139.94;;;-2.53;69.96
63351;BME280;64988;51.058;17.040;2022-12-18T07:32:42;102150.53;;;-2.53;69.83
63351;BME280;64988;51.058;17.040;2022-12-18T07:38:35;102152.38;;;-2.33;69.44
63351;BME280;64988;51.058;17.040;2022-12-18T07:44:28;102163.78;;;-2.38;68.91
63351;BME280;64988;51.058;17.040;2022-12-18T07:50:20;102177.94;;;-2.23;69.16
63351;BME280;64988;51.058;17.040;2022-12-18T07:56:12;102148.91;;;-2.17;69.13
63351;BME280;64988;51.058;17.040;2022-12-18T08:02:22;102169.19;;;-2.11;67.97
63351;BME280;64988;51.058;17.040;2022-12-18T08:08:14;102164.75;;;-2.15;67.90
63351;BME280;64988;51.058;17.040;2022-12-18T08:14:08;102177.19;;;-1.79;67.24
63351;BME280;64988;51.058;17.040;2022-12-18T08:20:01;102188.69;;;-1.56;66.87
63351;BME280;64988;51.058;17.040;2022-12-18T08:25:55;102194.81;;;-1.77;66.07
63351;BME280;64988;51.058;17.040;2022-12-18T08:31:49;102203.59;;;-2.05;67.64
63351;BME280;64988;51.058;17.040;2022-12-18T08:37:42;102209.84;;;-1.64;66.94
63351;BME280;64988;51.058;17.040;2022-12-18T08:43:35;102213.38;;;-1.45;65.87
63351;BME280;64988;51.058;17.040;2022-12-18T08:49:47;102213.41;;;-1.34;65.90
63351;BME280;64988;51.058;17.040;2022-12-18T08:55:40;102223.13;;;-0.97;64.78
63351;BME280;64988;51.058;17.040;2022-12-18T09:01:38;102214.25;;;-0.96;64.35
63351;BME280;64988;51.058;17.040;2022-12-18T09:07:31;102218.66;;;-0.93;64.30
63351;BME280;64988;51.058;17.040;2022-12-18T09:13:22;102205.41;;;-0.93;63.48
63351;BME280;64988;51.058;17.040;2022-12-18T09:19:16;102191.25;;;-0.80;62.98
63351;BME280;64988;51.058;17.040;2022-12-18T09:25:09;102196.59;;;-0.86;62.88
63351;BME280;64988;51.058;17.040;2022-12-18T09:31:06;102181.56;;;-0.93;63.26
63351;BME280;64988;51.058;17.040;2022-12-18T09:37:00;102156.00;;;-1.11;63.75
63351;BME280;64988;51.058;17.040;2022-12-18T09:43:02;102157.75;;;-1.12;63.92
63351;BME280;64988;51.058;17.040;2022-12-18T09:49:02;102158.63;;;-1.07;64.42
63351;BME280;64988;51.058;17.040;2022-12-18T09:55:21;102166.59;;;-1.35;64.79
63351;BME280;64988;51.058;17.040;2022-12-18T10:01:21;102165.72;;;-1.10;64.54
63351;BME280;64988;51.058;17.040;2022-12-18T10:07:47;102165.63;;;-0.77;63.76
63351;BME280;64988;51.058;17.040;2022-12-18T10:13:51;102171.88;;;-1.16;63.73
63351;BME280;64988;51.058;17.040;2022-12-18T10:19:54;102174.56;;;-1.52;65.88
63351;BME280;64988;51.058;17.040;2022-12-18T10:25:51;102184.25;;;-1.28;64.92
63351;BME280;64988;51.058;17.040;2022-12-18T10:31:47;102182.47;;;-0.97;64.29
63351;BME280;64988;51.058;17.040;2022-12-18T10:38:02;102155.16;;;-1.27;63.96
63351;BME280;64988;51.058;17.040;2022-12-18T10:44:11;102171.00;;;-1.09;65.08
63351;BME280;64988;51.058;17.040;2022-12-18T10:50:04;102169.25;;;-1.14;64.47
63351;BME280;64988;51.058;17.040;2022-12-18T10:55:58;102162.19;;;-1.17;65.20
63351;BME280;64988;51.058;17.040;2022-12-18T11:02:00;102173.69;;;-1.30;65.79
63351;BME280;64988;51.058;17.040;2022-12-18T11:07:54;102180.72;;;-1.08;64.82
63351;BME280;64988;51.058;17.040;2022-12-18T11:14:17;102187.81;;;-1.40;64.99
63351;BME280;64988;51.058;17.040;2022-12-18T11:20:35;102195.75;;;-1.28;65.83
63351;BME280;64988;51.058;17.040;2022-12-18T11:26:35;102204.56;;;-1.15;64.26
63351;BME280;64988;51.058;17.040;2022-12-18T11:32:34;102210.75;;;-1.19;63.90
63351;BME280;64988;51.058;17.040;2022-12-18T11:44:26;102187.81;;;-1.29;64.98
63351;BME280;64988;51.058;17.040;2022-12-18T11:56:42;102178.97;;;-1.27;64.80
63351;BME280;64988;51.058;17.040;2022-12-18T12:21:33;102165.72;;;-1.15;64.71
63351;BME280;64988;51.058;17.040;2022-12-18T12:40:04;102168.38;;;-1.43;65.48
63351;BME280;64988;51.058;17.040;2022-12-18T12:46:19;102167.50;;;-1.36;65.62
63351;BME280;64988;51.058;17.040;2022-12-18T12:52:45;102160.44;;;-1.51;65.99
63351;BME280;64988;51.058;17.040;2022-12-18T13:11:02;102163.91;;;-1.96;67.31
63351;BME280;64988;51.058;17.040;2022-12-18T13:35:38;102168.25;;;-2.16;68.86
63351;BME280;64988;51.058;17.040;2022-12-18T13:41:31;102183.25;;;-2.24;68.79
63351;BME280;64988;51.058;17.040;2022-12-18T13:47:35;102185.03;;;-2.16;68.69
63351;BME280;64988;51.058;17.040;2022-12-18T13:54:18;102203.47;;;-2.34;68.59
63351;BME280;64988;51.058;17.040;2022-12-18T13:59:47;102195.53;;;-2.38;69.38
63351;BME280;64988;51.058;17.040;2022-12-18T14:05:40;102208.66;;;-2.52;69.70
63351;BME280;64988;51.058;17.040;2022-12-18T14:11:37;102218.28;;;-2.65;70.62
63351;BME280;64988;51.058;17.040;2022-12-18T14:17:31;102224.31;;;-2.91;70.78
63351;BME280;64988;51.058;17.040;2022-12-18T14:29:30;102236.56;;;-3.02;71.13
63351;BME280;64988;51.058;17.040;2022-12-18T14:35:24;102246.16;;;-3.13;71.88
63351;BME280;64988;51.058;17.040;2022-12-18T14:41:18;102260.94;;;-3.32;72.44
63351;BME280;64988;51.058;17.040;2022-12-18T14:47:15;102240.75;;;-3.30;72.51
63351;BME280;64988;51.058;17.040;2022-12-18T14:53:20;102246.69;;;-3.52;72.75
63351;BME280;64988;51.058;17.040;2022-12-18T14:59:22;102244.94;;;-3.49;73.29
63351;BME280;64988;51.058;17.040;2022-12-18T15:05:20;102251.13;;;-3.45;72.54
63351;BME280;64988;51.058;17.040;2022-12-18T15:17:30;102237.59;;;-3.80;73.91
63351;BME280;64988;51.058;17.040;2022-12-18T15:23:33;102237.63;;;-3.79;73.69
63351;BME280;64988;51.058;17.040;2022-12-18T15:29:29;102242.69;;;-3.97;74.47
63351;BME280;64988;51.058;17.040;2022-12-18T15:35:23;102253.38;;;-3.88;73.52
63351;BME280;64988;51.058;17.040;2022-12-18T15:41:18;102240.91;;;-3.99;73.69
63351;BME280;64988;51.058;17.040;2022-12-18T15:47:15;102224.06;;;-4.12;73.63
63351;BME280;64988;51.058;17.040;2022-12-18T15:53:08;102215.22;;;-4.15;73.40
63351;BME280;64988;51.058;17.040;2022-12-18T15:59:02;102208.81;;;-4.37;74.32
63351;BME280;64988;51.058;17.040;2022-12-18T16:04:56;102207.13;;;-4.34;73.47
63351;BME280;64988;51.058;17.040;2022-12-18T16:10:49;102191.19;;;-4.43;74.10
63351;BME280;64988;51.058;17.040;2022-12-18T16:16:42;102195.47;;;-4.52;74.22
63351;BME280;64988;51.058;17.040;2022-12-18T16:22:35;102189.09;;;-4.68;74.32
63351;BME280;64988;51.058;17.040;2022-12-18T16:28:27;102190.69;;;-4.82;73.42
63351;BME280;64988;51.058;17.040;2022-12-18T16:34:24;102176.94;;;-5.20;73.86
63351;BME280;64988;51.058;17.040;2022-12-18T16:40:21;102182.44;;;-5.59;74.55
63351;BME280;64988;51.058;17.040;2022-12-18T16:46:14;102180.19;;;-5.92;75.52
63351;BME280;64988;51.058;17.040;2022-12-18T16:52:07;102182.38;;;-6.14;75.73
63351;BME280;64988;51.058;17.040;2022-12-18T16:58:01;102189.94;;;-6.31;75.89
63351;BME280;64988;51.058;17.040;2022-12-18T17:03:55;102186.84;;;-6.52;76.19
63351;BME280;64988;51.058;17.040;2022-12-18T17:09:49;102196.88;;;-6.75;76.34
63351;BME280;64988;51.058;17.040;2022-12-18T17:15:43;102207.28;;;-6.79;77.00
63351;BME280;64988;51.058;17.040;2022-12-18T17:21:36;102200.19;;;-6.85;78.04
63351;BME280;64988;51.058;17.040;2022-12-18T17:27:30;102201.84;;;-6.88;78.00
63351;BME280;64988;51.058;17.040;2022-12-18T17:33:23;102202.50;;;-6.97;78.14
63351;BME280;64988;51.058;17.040;2022-12-18T17:39:17;102208.50;;;-7.03;78.12
63351;BME280;64988;51.058;17.040;2022-12-18T17:45:10;102208.19;;;-7.16;77.30
63351;BME280;64988;51.058;17.040;2022-12-18T17:51:04;102207.06;;;-7.27;78.50
63351;BME280;64988;51.058;17.040;2022-12-18T17:56:57;102207.91;;;-7.28;78.70
63351;BME280;64988;51.058;17.040;2022-12-18T18:02:49;102206.94;;;-7.32;78.15
63351;BME280;64988;51.058;17.040;2022-12-18T18:08:42;102207.72;;;-7.36;78.80
63351;BME280;64988;51.058;17.040;2022-12-18T18:14:35;102214.59;;;-7.41;78.55
63351;BME280;64988;51.058;17.040;2022-12-18T18:20:28;102219.84;;;-7.41;79.74
63351;BME280;64988;51.058;17.040;2022-12-18T18:26:21;102199.06;;;-7.33;79.82
63351;BME280;64988;51.058;17.040;2022-12-18T18:32:17;102178.09;;;-7.32;79.60
63351;BME280;64988;51.058;17.040;2022-12-18T18:38:10;102183.28;;;-7.35;78.55
63351;BME280;64988;51.058;17.040;2022-12-18T18:44:04;102180.50;;;-7.41;78.37
63351;BME280;64988;51.058;17.040;2022-12-18T18:49:56;102190.72;;;-7.53;78.40
63351;BME280;64988;51.058;17.040;2022-12-18T18:55:49;102191.41;;;-7.59;77.17
63351;BME280;64988;51.058;17.040;2022-12-18T19:02:03;102202.50;;;-7.70;76.80
63351;BME280;64988;51.058;17.040;2022-12-18T19:07:58;102193.22;;;-7.90;76.50
63351;BME280;64988;51.058;17.040;2022-12-18T19:13:52;102190.94;;;-8.11;76.92
63351;BME280;64988;51.058;17.040;2022-12-18T19:19:50;102202.25;;;-8.12;77.01
63351;BME280;64988;51.058;17.040;2022-12-18T19:25:43;102193.28;;;-8.20;76.95
63351;BME280;64988;51.058;17.040;2022-12-18T19:31:38;102204.56;;;-8.24;76.02
63351;BME280;64988;51.058;17.040;2022-12-18T19:37:34;102185.03;;;-8.37;77.58
63351;BME280;64988;51.058;17.040;2022-12-18T19:43:28;102180.84;;;-8.30;76.60
63351;BME280;64988;51.058;17.040;2022-12-18T19:49:23;102163.44;;;-8.27;77.41
63351;BME280;64988;51.058;17.040;2022-12-18T19:55:19;102183.72;;;-8.20;76.88
63351;BME280;64988;51.058;17.040;2022-12-18T20:01:15;102169.03;;;-8.13;77.13
63351;BME280;64988;51.058;17.040;2022-12-18T20:07:10;102173.38;;;-8.14;76.95
63351;BME280;64988;51.058;17.040;2022-12-18T20:13:09;102169.03;;;-8.15;77.11
63351;BME280;64988;51.058;17.040;2022-12-18T20:19:08;102164.47;;;-8.20;77.54
63351;BME280;64988;51.058;17.040;2022-12-18T20:25:06;102161.25;;;-8.10;75.97
63351;BME280;64988;51.058;17.040;2022-12-18T20:31:05;102170.78;;;-8.14;75.47
63351;BME280;64988;51.058;17.040;2022-12-18T20:37:06;102164.56;;;-8.17;76.11
63351;BME280;64988;51.058;17.040;2022-12-18T20:43:02;102151.69;;;-8.10;75.63
63351;BME280;64988;51.058;17.040;2022-12-18T20:48:55;102165.44;;;-8.18;75.56
63351;BME280;64988;51.058;17.040;2022-12-18T20:54:47;102164.34;;;-8.28;76.56
63351;BME280;64988;51.058;17.040;2022-12-18T21:00:43;102160.81;;;-8.28;75.47
63351;BME280;64988;51.058;17.040;2022-12-18T21:06:36;102163.50;;;-8.25;76.23
63351;BME280;64988;51.058;17.040;2022-12-18T21:12:35;102170.41;;;-8.29;75.94
63351;BME280;64988;51.058;17.040;2022-12-18T21:18:39;102162.56;;;-8.27;75.42
63351;BME280;64988;51.058;17.040;2022-12-18T21:24:32;102166.94;;;-8.28;76.48
63351;BME280;64988;51.058;17.040;2022-12-18T21:30:26;102172.25;;;-8.23;75.65
63351;BME280;64988;51.058;17.040;2022-12-18T21:36:18;102161.00;;;-8.21;76.91
63351;BME280;64988;51.058;17.040;2022-12-18T21:42:11;102151.72;;;-8.08;77.77
63351;BME280;64988;51.058;17.040;2022-12-18T21:48:22;102141.56;;;-7.96;77.02
63351;BME280;64988;51.058;17.040;2022-12-18T21:54:15;102125.91;;;-7.93;77.18
63351;BME280;64988;51.058;17.040;2022-12-18T22:00:10;102109.44;;;-7.89;77.28
63351;BME280;64988;51.058;17.040;2022-12-18T22:06:11;102103.72;;;-7.73;76.66
63351;BME280;64988;51.058;17.040;2022-12-18T22:12:04;102091.44;;;-7.74;76.68
63351;BME280;64988;51.058;17.040;2022-12-18T22:17:57;102101.03;;;-7.76;76.73
63351;BME280;64988;51.058;17.040;2022-12-18T22:23:56;102086.13;;;-7.77;76.62
63351;BME280;64988;51.058;17.040;2022-12-18T22:29:49;102086.28;;;-7.71;75.83
63351;BME280;64988;51.058;17.040;2022-12-18T22:35:56;102083.78;;;-7.65;74.87
63351;BME280;64988;51.058;17.040;2022-12-18T22:41:49;102075.78;;;-7.71;74.86
63351;BME280;64988;51.058;17.040;2022-12-18T22:47:43;102070.41;;;-7.77;74.80
63351;BME280;64988;51.058;17.040;2022-12-18T22:53:35;102055.22;;;-7.91;75.57
63351;BME280;64988;51.058;17.040;2022-12-18T22:59:28;102039.13;;;-8.07;75.90
63351;BME280;64988;51.058;17.040;2022-12-18T23:05:20;102041.88;;;-8.02;75.67
63351;BME280;64988;51.058;17.040;2022-12-18T23:11:16;102030.44;;;-8.04;76.45
63351;BME280;64988;51.058;17.040;2022-12-18T23:17:08;102042.97;;;-7.92;76.07
63351;BME280;64988;51.058;17.040;2022-12-18T23:23:01;102023.63;;;-7.98;75.73
63351;BME280;64988;51.058;17.040;2022-12-18T23:28:54;102021.75;;;-8.03;75.60
63351;BME280;64988;51.058;17.040;2022-12-18T23:34:48;102024.22;;;-8.09;75.17
63351;BME280;64988;51.058;17.040;2022-12-18T23:40:40;102014.38;;;-8.19;74.70
63351;BME280;64988;51.058;17.040;2022-12-18T23:46:34;102012.50;;;-8.23;74.43
63351;BME280;64988;51.058;17.040;2022-12-18T23:52:28;101997.38;;;-8.36;75.36
63351;BME280;64988;51.058;17.040;2022-12-18T23:58:22;101995.47;;;-8.43;74.17
